AirNav   Duncan Aviation - Near you to keep you flying
 
 1053 users online  

8VA4 Lotus International Airport
Buckinham, Virginia, USA

GOING TO BUCKINHAM?


FAA INFORMATION EFFECTIVE 30 DECEMBER 2021

Location

FAA Identifier: 8VA4
Lat/Long: 37-40-22.5150N 078-42-12.0530W
37-40.375250N 078-42.200883W
37.6729208,-78.7033481
(estimated)
Elevation: 340 ft. / 103.6 m (surveyed)
Variation: 08W (1985)
From city: 10 miles NW of BUCKINHAM, VA
Time zone: UTC -5 (UTC -4 during Daylight Saving Time)
Zip code: 23921

Airport Operations

Airport use: Private use. Permission required prior to landing
Activation date: 02/1982
Control tower: no
ARTCC: WASHINGTON CENTER
FSS: LEESBURG FLIGHT SERVICE STATION
Attendance: DAYLIGHT HOURS
Wind indicator: yes
Segmented circle: no
Lights: FOR LIRL RWY 08/26 CALL 434-969-3121.

Airport Communications

UNICOM: 122.7

Nearby radio navigation aids

VOR radial/distance  VOR name  Freq  Var
MOLr131/23.5MONTEBELLO VOR/DME115.3005W
GVEr238/33.1GORDONSVILLE VORTAC115.6006W
LYHr050/35.7LYNCHBURG VOR/DME109.2005W

Airport Services

Runway Information

Runway 9/27

Dimensions: 2709 x 100 ft. / 826 x 30 m
Surface: turf
Runway edge lights: low intensity
RUNWAY 9  RUNWAY 27
Traffic pattern: leftright
Obstructions: 50 ft. trees, 500 ft. from runway200 ft. hill, 4000 ft. from runway

Airport Ownership and Management from official FAA records

Ownership: Privately-owned
Owner: YOGAVILLE
108 YOGAVILLE WAY
BUCKINGHAM, VA 23921
Phone (434) 969-3121
SATCHIDANANDA ASHRAM-YOGAVILLE-VIRGINIA
Manager: ERNIE MOORE
108 YOGAVILLE WAY
BUCKINGHAM, VA 23921
Phone (434) 969-3121

Additional Remarks

OWNER DESIRES CHARTG
FOR CD CTC POTOMAC APCH AT 866-640-4124.

Instrument Procedures

There are no published instrument procedures at 8VA4.

Some nearby airports with instrument procedures:

KFVX - Farmville Regional Airport (23 nm SE)
W24 - Falwell Airport (27 nm SW)
W13 - Eagle's Nest Airport (27 nm NW)
KCHO - Charlottesville-Albemarle Airport (30 nm NE)
KLYH - Lynchburg Regional Airport/Preston Glenn Field (32 nm SW)
 
Loc | Ops | Rwys | IFR | FBO | Links
Com | Nav | Svcs | Stats | Notes
Area around 8VA4 (Lotus International Airport)
 
Road maps at: MapQuest Bing Google
 
Aerial photo
No photo
 
Sectional chart

 
Airport distance calculator
Flying to Lotus International Airport? Find the distance to fly.

From to 8VA4

Sunrise and sunset
Times for 16-Jan-2022
 Local
(UTC-5)
 Zulu
(UTC)
Morning civil twilight07:0112:01
Sunrise07:3012:30
Sunset17:2022:20
Evening civil twilight17:4822:48

Current date and time
Zulu (UTC)  16-Jan-2022 18:55:35
Local (UTC-5)  16-Jan-2022 13:55:35
 
METAR
KFVX 
24nm SE 
161835Z AUTO 03009G16KT 4SM -SN OVC013 M07/M09 A2994 RMK AO2 T10711092
KW13 
27nm NW 
161835Z AUTO 01005KT 1/4SM OVC008 M09/M10 A2997 RMK AO1 P0003 T10911105
KCHO 
30nm NE 
161823Z 03006KT 1/4SM +SN VV009 M06/M09 A3004 RMK AO2 P0004 T10611089
KLYH 
32nm SW 
161754Z 03015KT 1/2SM R04/3000V5000FT SN FEW010 OVC019 M07/M09 A2993 RMK AO2 SLP144 P0010 60023 T10671094 11056 21072 56059
K0V4 
35nm SW 
161835Z AUTO 5SM OVC014 M06/M09 A2990 RMK AO1 T10611086
KSHD 
37nm N 
161835Z AUTO 01007KT 1/2SM SN OVC010 M09/M11 A3002 RMK AO2 T10901110
KGVE 
39nm NE 
161835Z AUTO 1/2SM OVC008 M07/M09 A3004 RMK AO1 T10751091
KLKU 
41nm NE 
161835Z AUTO 01008G17KT 340V040 1/2SM SN FZFG BKN010 OVC015 M08/M10 A3006 RMK AO2 T10821096
KW81 
41nm SE 
161835Z AUTO 03005KT 1 1/4SM OVC011 M06/M07 A2992 RMK AO1 P0002 T10601072
KVBW 
43nm N 
161835Z AUTO 02006KT 3/4SM OVC012 M09/M10 A3001 RMK AO1 T10911105
TAF
KCHO 
30nm NE 
161720Z 1618/1718 04008KT 1 1/2SM -SN BR OVC020 FM162300 03013G28KT 1/2SM FZRASNPL OVC008 WS020/06040KT FM170100 03014G31KT 1SM FZRA BR OVC008 FM170300 03014G34KT 3SM BR OVC008 FM170900 23008KT 6SM BR BKN008 FM171200 25011G28KT P6SM BKN060
KLYH 
32nm SW 
161720Z 1618/1718 02012G20KT 1/4SM +SN VV009 FM161900 03014G23KT 1/2SM SNPL OVC015 FM162100 03019G28KT 1/2SM -SNPL FZFG OVC007 FM170300 04009G19KT 1SM BR OVC007 FM170700 18005KT 4SM BR OVC007 FM171000 24011G19KT P6SM OVC020 FM171200 24010G17KT P6SM OVC050 FM171500 25013G23KT P6SM SCT100 BKN200
NOTAMs
Click for the latest NOTAMs
NOTAMs are issued by the DoD/FAA and will open in a separate window not controlled by AirNav.

 

 
 

Would you like to see your business listed on this page?

 If your business provides an interesting product or service to pilots, flight crews, aircraft, or users of the Lotus International Airport, you should consider listing it here.  To start the listing process, click on the button below
 
Add a business
 

Other Pages about Lotus International Airport

Update a link
 
Copyright © AirNav, LLC. All rights reserved. Privacy Policy  Contact